createdAt,value
2022-08-17T00:02:26.120Z,24.42
2022-08-17T00:05:33.384Z,24.42
2022-08-17T00:08:39.972Z,24.43
2022-08-17T00:12:40.598Z,24.42
2022-08-17T00:15:08.336Z,24.42
2022-08-17T00:19:06.565Z,24.41
2022-08-17T00:21:56.363Z,24.38
2022-08-17T00:25:07.230Z,24.36
2022-08-17T00:28:09.987Z,24.33
2022-08-17T00:31:13.236Z,24.26
2022-08-17T00:34:15.971Z,24.22
2022-08-17T00:37:18.882Z,24.16
2022-08-17T00:40:21.492Z,24.17
2022-08-17T00:43:35.091Z,24.14
2022-08-17T00:46:41.033Z,24.14
2022-08-17T00:49:44.223Z,24.10
2022-08-17T00:52:54.915Z,24.14
2022-08-17T00:56:01.660Z,24.24
2022-08-17T00:59:07.188Z,24.25
2022-08-17T01:02:14.070Z,24.12
2022-08-17T01:05:23.736Z,24.05
2022-08-17T01:08:31.006Z,24.00
2022-08-17T01:11:36.186Z,23.96
2022-08-17T01:14:41.112Z,24.01
2022-08-17T01:17:45.930Z,23.97
2022-08-17T01:20:51.984Z,23.93
2022-08-17T01:23:54.674Z,23.99
2022-08-17T01:26:57.729Z,23.92
2022-08-17T01:30:02.632Z,24.00
2022-08-17T01:33:05.840Z,23.91
2022-08-17T01:36:09.432Z,23.94
2022-08-17T01:39:23.255Z,23.91
2022-08-17T01:42:38.316Z,23.91
2022-08-17T01:45:44.917Z,23.83
2022-08-17T01:48:47.670Z,23.77
2022-08-17T01:51:51.204Z,23.78
2022-08-17T01:54:54.163Z,23.73
2022-08-17T01:57:57.103Z,23.68
2022-08-17T02:01:02.608Z,23.67
2022-08-17T02:04:08.370Z,23.63
2022-08-17T02:07:10.812Z,23.66
2022-08-17T02:10:20.034Z,23.67
2022-08-17T02:13:23.301Z,23.65
2022-08-17T02:16:26.238Z,23.67
2022-08-17T02:19:39.052Z,23.69
2022-08-17T02:22:44.925Z,23.60
2022-08-17T02:25:50.571Z,23.58
2022-08-17T02:28:53.702Z,23.53
2022-08-17T02:31:58.595Z,23.59
2022-08-17T02:35:01.985Z,23.56
2022-08-17T02:38:06.152Z,23.53
2022-08-17T02:41:09.591Z,23.52
2022-08-17T02:44:12.207Z,23.52
2022-08-17T02:47:15.163Z,23.52
2022-08-17T02:50:24.178Z,23.56
2022-08-17T02:53:27.625Z,23.57
2022-08-17T02:56:38.572Z,23.56
2022-08-17T02:59:46.729Z,23.54
2022-08-17T03:02:51.998Z,23.56
2022-08-17T03:05:55.144Z,23.54
2022-08-17T03:08:57.815Z,23.53
2022-08-17T03:12:12.472Z,23.47
2022-08-17T03:15:19.487Z,23.52
2022-08-17T03:18:25.582Z,23.51
2022-08-17T03:21:28.700Z,23.45
2022-08-17T03:24:31.753Z,23.39
2022-08-17T03:27:34.183Z,23.34
2022-08-17T03:30:37.128Z,23.31
2022-08-17T03:33:39.606Z,23.30
2022-08-17T03:36:42.697Z,23.25
2022-08-17T03:39:45.573Z,23.24
2022-08-17T03:42:48.805Z,23.25
2022-08-17T03:46:11.031Z,23.23
2022-08-17T03:49:50.520Z,23.22
2022-08-17T03:53:11.843Z,23.22
2022-08-17T03:56:33.120Z,23.21
2022-08-17T03:59:36.660Z,23.27
2022-08-17T04:02:40.446Z,23.23
2022-08-17T04:05:43.540Z,23.27
2022-08-17T04:08:46.181Z,23.39
2022-08-17T04:11:48.854Z,23.41
2022-08-17T04:14:54.679Z,23.31
2022-08-17T04:17:58.061Z,23.28
2022-08-17T04:21:00.739Z,23.35
2022-08-17T04:24:05.152Z,23.30
2022-08-17T04:27:07.804Z,23.36
2022-08-17T04:30:10.761Z,23.32
2022-08-17T04:33:17.045Z,23.49
2022-08-17T04:36:21.116Z,23.46
2022-08-17T04:39:26.622Z,23.55
2022-08-17T04:42:29.373Z,23.42
2022-08-17T04:45:32.618Z,23.34
2022-08-17T04:48:38.287Z,23.39
2022-08-17T04:51:54.536Z,23.42
2022-08-17T04:55:04.121Z,23.59
2022-08-17T04:58:07.619Z,23.55
2022-08-17T05:01:10.530Z,23.51
2022-08-17T05:04:32.875Z,23.57
2022-08-17T05:07:37.308Z,23.55
2022-08-17T05:10:45.406Z,23.58
2022-08-17T05:13:50.300Z,23.44
2022-08-17T05:16:53.189Z,23.48
2022-08-17T05:19:55.929Z,23.58
2022-08-17T05:23:01.684Z,23.67
2022-08-17T05:26:04.972Z,23.76
2022-08-17T05:29:10.500Z,23.88
2022-08-17T05:32:39.691Z,23.89
2022-08-17T05:35:39.540Z,24.03
2022-08-17T05:38:42.378Z,24.08
2022-08-17T05:41:47.127Z,24.10
2022-08-17T05:44:49.925Z,24.17
2022-08-17T05:47:52.643Z,24.26
2022-08-17T05:51:00.803Z,24.52
2022-08-17T05:54:14.056Z,24.49
2022-08-17T05:57:35.809Z,24.63
2022-08-17T06:01:01.684Z,24.75
2022-08-17T06:04:23.191Z,24.83
2022-08-17T06:07:49.680Z,24.95
2022-08-17T06:11:16.069Z,25.07
2022-08-17T06:14:36.255Z,25.23
2022-08-17T06:17:39.466Z,25.49
2022-08-17T06:20:56.379Z,25.57
2022-08-17T06:24:23.705Z,25.59
2022-08-17T06:27:38.159Z,25.73
2022-08-17T06:30:59.790Z,25.94
2022-08-17T06:34:08.253Z,26.18
2022-08-17T06:37:48.859Z,26.36
2022-08-17T06:41:02.338Z,26.66
2022-08-17T06:44:50.164Z,26.79
2022-08-17T06:48:24.421Z,26.90
2022-08-17T06:51:34.667Z,27.13
2022-08-17T06:54:39.922Z,27.35
2022-08-17T06:57:47.701Z,27.54
2022-08-17T07:00:58.489Z,27.80
2022-08-17T07:04:15.606Z,28.13
2022-08-17T07:07:39.378Z,28.37
2022-08-17T07:10:52.645Z,28.48
2022-08-17T07:13:58.152Z,28.85
2022-08-17T07:17:06.688Z,29.24
2022-08-17T07:20:14.945Z,29.44
2022-08-17T07:23:30.153Z,29.55
2022-08-17T07:26:32.885Z,29.84
2022-08-17T07:29:49.572Z,30.26
2022-08-17T07:33:02.264Z,30.63
2022-08-17T07:36:05.726Z,30.85
2022-08-17T07:39:09.826Z,31.23
2022-08-17T07:42:12.738Z,31.64
2022-08-17T07:45:35.416Z,32.10
2022-08-17T07:48:40.820Z,32.52
2022-08-17T07:51:43.735Z,33.03
2022-08-17T07:54:46.851Z,33.41
2022-08-17T07:57:57.575Z,33.63
2022-08-17T08:01:10.867Z,34.06
2022-08-17T08:04:49.885Z,34.61
2022-08-17T08:07:57.112Z,35.10
2022-08-17T08:11:04.365Z,35.67
2022-08-17T08:14:30.231Z,36.14
2022-08-17T08:17:45.164Z,36.66
2022-08-17T08:20:54.120Z,36.97
2022-08-17T08:24:20.758Z,37.31
2022-08-17T08:27:40.590Z,37.71
2022-08-17T08:30:50.551Z,38.25
2022-08-17T08:34:58.678Z,38.51
2022-08-17T08:38:07.622Z,38.55
2022-08-17T08:41:34.890Z,38.78
2022-08-17T08:45:00.231Z,39.13
2022-08-17T08:48:22.986Z,39.51
2022-08-17T08:51:57.622Z,40.20
2022-08-17T08:55:15.444Z,40.98
2022-08-17T08:58:51.601Z,41.56
2022-08-17T09:02:18.611Z,42.20
2022-08-17T09:05:27.183Z,42.44
2022-08-17T09:08:48.279Z,42.53
2022-08-17T09:12:08.574Z,42.44
2022-08-17T09:15:27.644Z,42.86
2022-08-17T09:19:02.653Z,43.40
2022-08-17T09:22:20.802Z,43.80
2022-08-17T09:25:29.460Z,44.27
2022-08-17T09:28:42.640Z,44.72
2022-08-17T09:32:17.712Z,45.07
2022-08-17T09:35:25.202Z,45.05
2022-08-17T09:39:01.140Z,45.35
2022-08-17T09:42:14.317Z,45.42
2022-08-17T09:45:42.628Z,45.82
2022-08-17T09:48:57.501Z,45.64
2022-08-17T09:52:23.535Z,45.88
2022-08-17T09:55:52.703Z,46.12
2022-08-17T09:59:17.240Z,46.23
2022-08-17T10:02:40.455Z,46.41
2022-08-17T10:06:02.802Z,46.54
2022-08-17T10:09:22.185Z,46.89
2022-08-17T10:12:30.439Z,47.02
2022-08-17T10:15:46.799Z,46.19
2022-08-17T10:19:08.346Z,46.60
2022-08-17T10:22:44.042Z,47.20
2022-08-17T10:26:04.834Z,47.11
2022-08-17T10:29:11.235Z,46.98
2022-08-17T10:32:32.865Z,46.87
2022-08-17T10:35:43.890Z,45.12
2022-08-17T10:38:49.911Z,44.37
2022-08-17T10:41:57.439Z,44.99
2022-08-17T10:45:15.708Z,45.72
2022-08-17T10:48:26.312Z,45.80
2022-08-17T10:51:41.173Z,46.20
2022-08-17T10:55:06.294Z,46.60
2022-08-17T10:58:22.229Z,46.95
2022-08-17T11:01:38.107Z,47.06
2022-08-17T11:05:06.302Z,47.07
2022-08-17T11:08:30.763Z,47.27
2022-08-17T11:11:56.279Z,47.26
2022-08-17T11:15:23.146Z,46.92
2022-08-17T11:19:08.553Z,46.48
2022-08-17T11:22:20.151Z,45.80
2022-08-17T11:26:08.602Z,45.75
2022-08-17T11:29:24.622Z,44.68
2022-08-17T11:32:27.840Z,44.54
2022-08-17T11:35:47.193Z,45.03
2022-08-17T11:39:01.785Z,44.42
2022-08-17T11:42:38.846Z,44.64
2022-08-17T11:45:57.251Z,44.70
2022-08-17T11:49:40.887Z,44.99
2022-08-17T11:52:47.403Z,45.07
2022-08-17T11:55:52.939Z,45.50
2022-08-17T11:58:56.793Z,45.47
2022-08-17T12:02:01.868Z,45.53
2022-08-17T12:05:17.074Z,45.44
2022-08-17T12:08:21.904Z,45.37
2022-08-17T12:12:13.461Z,45.00
2022-08-17T12:15:28.851Z,43.31
2022-08-17T12:18:35.841Z,42.59
2022-08-17T12:21:48.909Z,42.82
2022-08-17T12:25:16.373Z,43.29
2022-08-17T12:28:29.479Z,43.65
2022-08-17T12:31:43.582Z,43.68
2022-08-17T12:34:48.738Z,42.99
2022-08-17T12:37:52.136Z,42.97
2022-08-17T12:40:57.997Z,43.39
2022-08-17T12:44:15.297Z,43.52
2022-08-17T12:47:22.311Z,43.74
2022-08-17T12:50:28.274Z,43.52
2022-08-17T12:53:35.810Z,42.62
2022-08-17T12:56:39.227Z,42.54
2022-08-17T12:59:45.932Z,42.65
2022-08-17T13:02:53.984Z,42.83
2022-08-17T13:06:08.065Z,43.13
2022-08-17T13:09:14.394Z,43.22
2022-08-17T13:12:26.448Z,43.29
2022-08-17T13:15:38.211Z,43.24
2022-08-17T13:18:50.390Z,43.19
2022-08-17T13:21:56.899Z,42.45
2022-08-17T13:25:07.342Z,42.00
2022-08-17T13:28:18.983Z,41.55
2022-08-17T13:31:52.099Z,40.86
2022-08-17T13:35:12.325Z,40.31
2022-08-17T13:38:47.173Z,39.71
2022-08-17T13:41:55.392Z,39.04
2022-08-17T13:44:58.808Z,38.46
2022-08-17T13:48:11.121Z,38.21
2022-08-17T13:51:29.046Z,37.99
2022-08-17T13:54:33.208Z,38.17
2022-08-17T13:57:36.258Z,38.66
2022-08-17T14:00:40.378Z,38.90
2022-08-17T14:03:44.361Z,39.03
2022-08-17T14:07:01.534Z,39.21
2022-08-17T14:10:06.389Z,39.30
2022-08-17T14:13:09.174Z,39.44
2022-08-17T14:16:11.993Z,39.53
2022-08-17T14:19:15.100Z,39.20
2022-08-17T14:22:30.636Z,39.11
2022-08-17T14:25:33.329Z,39.05
2022-08-17T14:28:38.695Z,39.08
2022-08-17T14:31:58.000Z,39.01
2022-08-17T14:35:04.802Z,38.82
2022-08-17T14:38:07.963Z,38.63
2022-08-17T14:41:11.416Z,38.45
2022-08-17T14:44:14.248Z,38.29
2022-08-17T14:47:17.420Z,38.28
2022-08-17T14:50:21.200Z,38.18
2022-08-17T14:53:25.110Z,38.24
2022-08-17T14:56:28.011Z,38.09
2022-08-17T14:59:38.184Z,37.96
2022-08-17T15:02:55.912Z,37.84
2022-08-17T15:05:59.553Z,37.70
2022-08-17T15:09:02.383Z,37.53
2022-08-17T15:12:06.651Z,37.34
2022-08-17T15:15:13.312Z,37.14
2022-08-17T15:18:16.330Z,36.97
2022-08-17T15:21:19.080Z,36.70
2022-08-17T15:24:21.826Z,36.69
2022-08-17T15:27:32.245Z,36.51
2022-08-17T15:30:35.825Z,36.38
2022-08-17T15:33:38.827Z,36.24
2022-08-17T15:36:49.002Z,36.06
2022-08-17T15:39:52.376Z,35.92
2022-08-17T15:42:55.304Z,35.80
2022-08-17T15:46:12.605Z,35.65
2022-08-17T15:49:17.145Z,35.63
2022-08-17T15:52:24.193Z,35.53
2022-08-17T15:55:30.087Z,35.36
2022-08-17T15:58:34.904Z,35.24
2022-08-17T16:02:53.879Z,35.21
2022-08-17T16:05:12.209Z,35.14
2022-08-17T16:08:20.896Z,34.99
2022-08-17T16:11:26.413Z,34.83
2022-08-17T16:14:32.546Z,34.73
2022-08-17T16:17:40.232Z,34.61
2022-08-17T16:20:44.178Z,34.54
2022-08-17T16:23:49.796Z,34.41
2022-08-17T16:26:52.267Z,34.29
2022-08-17T16:29:55.532Z,34.40
2022-08-17T16:33:00.252Z,34.20
2022-08-17T16:36:08.453Z,34.14
2022-08-17T16:39:10.984Z,34.02
2022-08-17T16:42:31.890Z,33.96
2022-08-17T16:45:36.923Z,33.75
2022-08-17T16:48:40.020Z,33.65
2022-08-17T16:51:42.599Z,33.48
2022-08-17T16:54:47.005Z,33.36
2022-08-17T16:57:50.625Z,33.36
2022-08-17T17:00:54.362Z,33.26
2022-08-17T17:04:02.137Z,33.19
2022-08-17T17:07:33.971Z,33.08
2022-08-17T17:10:46.068Z,32.96
2022-08-17T17:14:01.605Z,32.88
2022-08-17T17:17:11.870Z,32.75
2022-08-17T17:20:22.786Z,32.68
2022-08-17T17:23:35.151Z,32.50
2022-08-17T17:26:47.120Z,32.42
2022-08-17T17:30:07.618Z,32.32
2022-08-17T17:33:42.886Z,32.29
2022-08-17T17:36:54.577Z,32.23
2022-08-17T17:40:00.580Z,32.12
2022-08-17T17:43:34.802Z,31.97
2022-08-17T17:46:37.981Z,32.04
2022-08-17T17:49:43.955Z,31.88
2022-08-17T17:53:08.849Z,31.73
2022-08-17T17:56:43.331Z,31.63
2022-08-17T18:00:00.532Z,31.54
2022-08-17T18:03:39.843Z,31.40
2022-08-17T18:07:04.387Z,31.36
2022-08-17T18:11:04.975Z,31.21
2022-08-17T18:14:46.349Z,31.14
2022-08-17T18:18:14.127Z,31.03
2022-08-17T18:21:22.247Z,30.96
2022-08-17T18:24:38.081Z,30.91
2022-08-17T18:27:51.243Z,30.81
2022-08-17T18:31:26.611Z,30.75
2022-08-17T18:34:47.153Z,30.71
2022-08-17T18:37:53.928Z,30.64
2022-08-17T18:41:05.433Z,30.58
2022-08-17T18:44:35.531Z,30.52
2022-08-17T18:47:54.054Z,30.44
2022-08-17T18:51:00.928Z,30.37
2022-08-17T18:54:18.284Z,30.31
2022-08-17T18:57:31.455Z,30.22
2022-08-17T19:00:40.280Z,30.12
2022-08-17T19:03:43.492Z,30.07
2022-08-17T19:06:46.645Z,30.02
2022-08-17T19:10:28.767Z,29.96
2022-08-17T19:13:36.969Z,29.90
2022-08-17T19:17:05.469Z,29.83
2022-08-17T19:20:19.869Z,30.00
2022-08-17T19:23:31.021Z,30.10
2022-08-17T19:26:54.572Z,30.11
2022-08-17T19:30:07.499Z,29.90
2022-08-17T19:33:11.969Z,29.84
2022-08-17T19:36:25.648Z,29.66
2022-08-17T19:39:40.568Z,29.59
2022-08-17T19:43:10.056Z,29.59
2022-08-17T19:46:41.182Z,29.49
2022-08-17T19:50:07.362Z,29.49
2022-08-17T19:53:47.457Z,29.36
2022-08-17T19:57:39.482Z,29.37
2022-08-17T20:00:51.181Z,29.50
2022-08-17T20:04:03.381Z,29.49
2022-08-17T20:07:30.185Z,29.36
2022-08-17T20:10:48.120Z,29.23
2022-08-17T20:14:09.742Z,29.12
2022-08-17T20:17:12.900Z,29.10
2022-08-17T20:20:36.763Z,29.06
2022-08-17T20:23:53.534Z,29.09
2022-08-17T20:27:00.892Z,29.00
2022-08-17T20:30:11.788Z,28.95
2022-08-17T20:33:37.107Z,28.87
2022-08-17T20:36:57.128Z,28.82
2022-08-17T20:39:59.753Z,28.78
2022-08-17T20:43:33.583Z,28.72
2022-08-17T20:46:37.106Z,28.67
2022-08-17T20:49:44.510Z,28.58
2022-08-17T20:52:59.776Z,28.51
2022-08-17T20:56:02.632Z,28.44
2022-08-17T20:59:07.615Z,28.40
2022-08-17T21:02:19.381Z,28.32
2022-08-17T21:05:34.801Z,28.21
2022-08-17T21:09:19.009Z,28.13
2022-08-17T21:12:42.221Z,28.08
2022-08-17T21:16:09.447Z,28.00
2022-08-17T21:19:22.852Z,27.94
2022-08-17T21:22:43.540Z,27.88
2022-08-17T21:26:12.729Z,27.83
2022-08-17T21:29:31.105Z,27.79
2022-08-17T21:32:38.109Z,27.72
2022-08-17T21:35:49.405Z,27.67
2022-08-17T21:39:00.338Z,27.61
2022-08-17T21:42:04.933Z,27.56
2022-08-17T21:45:30.478Z,27.56
2022-08-17T21:48:43.851Z,27.54
2022-08-17T21:51:51.068Z,27.52
2022-08-17T21:54:57.286Z,27.49
2022-08-17T21:58:22.108Z,27.46
2022-08-17T22:01:28.431Z,27.45
2022-08-17T22:04:37.672Z,27.38
2022-08-17T22:07:42.047Z,27.34
2022-08-17T22:10:48.960Z,27.31
